createdAt,value
2023-01-08T00:00:35.611Z,98967.70
2023-01-08T00:03:50.240Z,98960.55
2023-01-08T00:07:02.737Z,98947.96
2023-01-08T00:10:15.957Z,98952.54
2023-01-08T00:13:28.587Z,98953.15
2023-01-08T00:16:40.971Z,98940.13
2023-01-08T00:19:53.211Z,98944.96
2023-01-08T00:23:05.490Z,98940.64
2023-01-08T00:26:19.745Z,98925.17
2023-01-08T00:29:33.040Z,98924.17
2023-01-08T00:32:45.272Z,98916.98
2023-01-08T00:35:58.837Z,98927.97
2023-01-08T00:39:11.151Z,98935.83
2023-01-08T00:42:23.413Z,98935.67
2023-01-08T00:45:35.747Z,98932.78
2023-01-08T00:48:47.998Z,98921.55
2023-01-08T00:52:00.420Z,98921.46
2023-01-08T00:55:14.410Z,98915.07
2023-01-08T00:58:26.582Z,98914.37
2023-01-08T01:01:39.012Z,98927.45
2023-01-08T01:04:51.346Z,98925.59
2023-01-08T01:08:04.198Z,98915.04
2023-01-08T01:11:21.928Z,98921.31
2023-01-08T01:14:34.094Z,98910.32
2023-01-08T01:17:49.101Z,98915.13
2023-01-08T01:21:01.708Z,98917.17
2023-01-08T01:24:17.011Z,98914.13
2023-01-08T01:27:29.306Z,98906.36
2023-01-08T01:30:41.561Z,98903.56
2023-01-08T01:33:54.271Z,98900.52
2023-01-08T01:37:07.557Z,98912.09
2023-01-08T01:40:20.437Z,98902.89
2023-01-08T01:43:49.666Z,98903.75
2023-01-08T01:47:01.819Z,98891.67
2023-01-08T01:50:19.850Z,98892.77
2023-01-08T01:53:36.759Z,98885.83
2023-01-08T01:56:49.917Z,98884.30
2023-01-08T02:00:04.692Z,98877.73
2023-01-08T02:03:20.912Z,98871.64
2023-01-08T02:06:41.836Z,98863.89
2023-01-08T02:10:01.389Z,98859.84
2023-01-08T02:13:20.538Z,98862.36
2023-01-08T02:16:39.617Z,98852.23
2023-01-08T02:19:56.119Z,98846.56
2023-01-08T02:23:26.671Z,98849.18
2023-01-08T02:26:40.671Z,98844.13
2023-01-08T02:29:54.095Z,98843.28
2023-01-08T02:33:06.423Z,98838.05
2023-01-08T02:36:44.332Z,98831.06
2023-01-08T02:40:10.143Z,98839.72
2023-01-08T02:43:28.178Z,98840.05
2023-01-08T02:46:44.030Z,98834.00
2023-01-08T02:50:01.860Z,98830.11
2023-01-08T02:53:19.412Z,98831.64
2023-01-08T02:56:36.543Z,98832.14
2023-01-08T02:59:49.181Z,98832.91
2023-01-08T03:03:08.448Z,98826.48
2023-01-08T03:06:23.283Z,98832.47
2023-01-08T03:09:35.582Z,98835.00
2023-01-08T03:13:02.914Z,98834.65
2023-01-08T03:16:16.101Z,98844.05
2023-01-08T03:19:33.457Z,98837.14
2023-01-08T03:22:51.240Z,98835.88
2023-01-08T03:26:05.414Z,98835.44
2023-01-08T03:29:24.401Z,98822.23
2023-01-08T03:32:38.287Z,98827.45
2023-01-08T03:35:54.891Z,98814.03
2023-01-08T03:39:12.654Z,98815.88
2023-01-08T03:42:26.648Z,98820.26
2023-01-08T03:45:40.494Z,98820.17
2023-01-08T03:48:54.523Z,98820.94
2023-01-08T03:52:07.081Z,98816.97
2023-01-08T03:55:19.593Z,98806.60
2023-01-08T03:58:31.729Z,98798.14
2023-01-08T04:01:44.288Z,98795.77
2023-01-08T04:04:56.846Z,98798.00
2023-01-08T04:08:09.425Z,98794.13
2023-01-08T04:11:21.628Z,98791.34
2023-01-08T04:14:33.782Z,98789.58
2023-01-08T04:17:46.175Z,98787.55
2023-01-08T04:20:58.530Z,98790.53
2023-01-08T04:24:11.313Z,98790.53
2023-01-08T04:27:23.627Z,98791.56
2023-01-08T04:30:35.783Z,98802.33
2023-01-08T04:33:48.044Z,98795.58
2023-01-08T04:37:00.364Z,98788.83
2023-01-08T04:40:15.716Z,98790.67
2023-01-08T04:43:28.024Z,98794.19
2023-01-08T04:46:40.465Z,98789.98
2023-01-08T04:49:53.261Z,98796.20
2023-01-08T04:53:06.785Z,98783.69
2023-01-08T04:56:19.313Z,98782.06
2023-01-08T04:59:31.788Z,98787.97
2023-01-08T05:02:44.666Z,98788.97
2023-01-08T05:05:57.422Z,98783.29
2023-01-08T05:09:10.026Z,98772.02
2023-01-08T05:12:22.297Z,98780.67
2023-01-08T05:15:34.751Z,98786.98
2023-01-08T05:18:47.109Z,98776.48
2023-01-08T05:21:59.228Z,98778.16
2023-01-08T05:25:12.805Z,98773.78
2023-01-08T05:28:24.984Z,98751.99
2023-01-08T05:31:37.317Z,98770.86
2023-01-08T05:34:50.510Z,98761.27
2023-01-08T05:38:05.446Z,98740.95
2023-01-08T05:41:18.229Z,98760.73
2023-01-08T05:44:30.405Z,98762.52
2023-01-08T05:47:42.933Z,98751.53
2023-01-08T05:50:56.619Z,98757.21
2023-01-08T05:54:08.934Z,98754.52
2023-01-08T05:57:21.123Z,98744.38
2023-01-08T06:00:33.346Z,98731.28
2023-01-08T06:03:46.395Z,98736.27
2023-01-08T06:06:58.835Z,98735.42
2023-01-08T06:10:12.598Z,98740.50
2023-01-08T06:13:24.747Z,98731.73
2023-01-08T06:16:37.189Z,98734.56
2023-01-08T06:19:49.537Z,98734.97
2023-01-08T06:23:02.882Z,98728.98
2023-01-08T06:26:15.232Z,98732.36
2023-01-08T06:29:27.567Z,98740.58
2023-01-08T06:32:39.759Z,98741.34
2023-01-08T06:35:51.853Z,98736.42
2023-01-08T06:39:03.987Z,98735.83
2023-01-08T06:42:16.354Z,98742.94
2023-01-08T06:45:28.593Z,98716.47
2023-01-08T06:48:40.789Z,98737.80
2023-01-08T06:51:53.260Z,98735.58
2023-01-08T06:55:06.175Z,98739.09
2023-01-08T06:58:19.733Z,98741.09
2023-01-08T07:01:32.124Z,98741.09
2023-01-08T07:04:44.755Z,98747.30
2023-01-08T07:07:57.207Z,98751.23
2023-01-08T07:11:11.589Z,98746.48
2023-01-08T07:14:23.807Z,98746.09
2023-01-08T07:17:38.212Z,98743.01
2023-01-08T07:20:50.539Z,98739.41
2023-01-08T07:24:04.102Z,98745.41
2023-01-08T07:27:16.231Z,98747.63
2023-01-08T07:30:30.319Z,98732.78
2023-01-08T07:33:42.864Z,98721.03
2023-01-08T07:36:55.025Z,98726.78
2023-01-08T07:40:07.426Z,98719.86
2023-01-08T07:43:20.087Z,98710.80
2023-01-08T07:46:32.483Z,98699.17
2023-01-08T07:49:44.697Z,98708.30
2023-01-08T07:52:57.097Z,98700.03
2023-01-08T07:56:12.940Z,98707.56
2023-01-08T07:59:25.214Z,98705.89
2023-01-08T08:02:37.612Z,98687.12
2023-01-08T08:05:50.037Z,98687.20
2023-01-08T08:09:04.760Z,98690.76
2023-01-08T08:12:17.342Z,98675.84
2023-01-08T08:15:29.591Z,98675.02
2023-01-08T08:18:41.824Z,98666.94
2023-01-08T08:21:54.164Z,98669.47
2023-01-08T08:25:06.317Z,98665.58
2023-01-08T08:28:19.372Z,98662.48
2023-01-08T08:31:31.719Z,98658.44
2023-01-08T08:34:43.968Z,98645.42
2023-01-08T08:37:56.498Z,98644.17
2023-01-08T08:41:08.975Z,98637.84
2023-01-08T08:44:21.224Z,98630.52
2023-01-08T08:47:33.545Z,98621.88
2023-01-08T08:50:46.032Z,98626.47
2023-01-08T08:53:58.311Z,98616.34
2023-01-08T08:57:10.400Z,98620.47
2023-01-08T09:00:24.398Z,98610.50
2023-01-08T09:03:37.096Z,98620.05
2023-01-08T09:06:49.318Z,98618.13
2023-01-08T09:10:01.684Z,98621.13
2023-01-08T09:13:14.038Z,98605.59
2023-01-08T09:16:26.477Z,98603.13
2023-01-08T09:19:39.107Z,98600.87
2023-01-08T09:22:51.340Z,98594.30
2023-01-08T09:26:08.794Z,98601.55
2023-01-08T09:29:21.056Z,98593.08
2023-01-08T09:32:33.177Z,98577.52
2023-01-08T09:35:47.530Z,98583.11
2023-01-08T09:38:59.562Z,98580.83
2023-01-08T09:42:15.317Z,98572.78
2023-01-08T09:45:32.507Z,98565.02
2023-01-08T09:48:47.623Z,98550.23
2023-01-08T09:52:00.929Z,98548.14
2023-01-08T09:55:19.028Z,98543.95
2023-01-08T09:58:39.690Z,98540.79
2023-01-08T10:01:53.226Z,98525.97
2023-01-08T10:05:07.301Z,98531.14
2023-01-08T10:08:21.963Z,98528.91
2023-01-08T10:11:39.795Z,98517.66
2023-01-08T10:14:54.485Z,98519.02
2023-01-08T10:18:11.678Z,98514.73
2023-01-08T10:21:25.734Z,98510.83
2023-01-08T10:24:43.751Z,98503.99
2023-01-08T10:28:00.708Z,98499.35
2023-01-08T10:31:18.174Z,98490.55
2023-01-08T10:34:46.096Z,98477.91
2023-01-08T10:37:58.206Z,98476.53
2023-01-08T10:41:15.219Z,98462.28
2023-01-08T10:44:27.148Z,98458.89
2023-01-08T10:47:42.479Z,98444.24
2023-01-08T10:50:54.667Z,98445.00
2023-01-08T10:54:19.398Z,98447.63
2023-01-08T10:57:34.964Z,98436.15
2023-01-08T11:00:47.613Z,98425.30
2023-01-08T11:04:03.273Z,98422.80
2023-01-08T11:07:24.768Z,98422.09
2023-01-08T11:10:39.487Z,98417.09
2023-01-08T11:14:03.373Z,98419.27
2023-01-08T11:17:18.951Z,98407.30
2023-01-08T11:20:35.007Z,98404.58
2023-01-08T11:23:49.091Z,98391.91
2023-01-08T11:27:07.814Z,98397.28
2023-01-08T11:30:25.401Z,98390.97
2023-01-08T11:33:41.418Z,98387.02
2023-01-08T11:36:59.403Z,98379.98
2023-01-08T11:40:20.869Z,98375.09
2023-01-08T11:43:41.025Z,98374.73
2023-01-08T11:47:00.426Z,98365.00
2023-01-08T11:50:25.972Z,98361.09
2023-01-08T11:53:42.632Z,98357.67
2023-01-08T11:57:12.842Z,98355.52
2023-01-08T12:00:42.865Z,98344.78
2023-01-08T12:04:02.473Z,98342.67
2023-01-08T12:07:22.355Z,98343.67
2023-01-08T12:10:52.729Z,98329.63
2023-01-08T12:14:43.603Z,98329.71
2023-01-08T12:18:20.762Z,98321.79
2023-01-08T12:21:37.944Z,98311.66
2023-01-08T12:25:01.635Z,98320.28
2023-01-08T12:28:46.825Z,98301.02
2023-01-08T12:32:16.897Z,98308.45
2023-01-08T12:35:33.318Z,98301.28
2023-01-08T12:38:50.824Z,98294.06
2023-01-08T12:42:08.315Z,98288.39
2023-01-08T12:45:27.624Z,98287.69
2023-01-08T12:48:42.612Z,98282.80
2023-01-08T12:52:00.786Z,98288.61
2023-01-08T12:55:24.956Z,98282.77
2023-01-08T12:58:58.789Z,98280.51
2023-01-08T13:02:20.058Z,98274.00
2023-01-08T13:05:42.251Z,98259.56
2023-01-08T13:09:00.510Z,98266.95
2023-01-08T13:12:13.705Z,98269.06
2023-01-08T13:15:31.577Z,98265.44
2023-01-08T13:18:44.323Z,98264.48
2023-01-08T13:22:02.514Z,98271.42
2023-01-08T13:25:37.432Z,98271.70
2023-01-08T13:28:51.991Z,98262.55
2023-01-08T13:32:03.962Z,98266.30
2023-01-08T13:35:31.498Z,98267.01
2023-01-08T13:38:44.151Z,98268.95
2023-01-08T13:42:28.782Z,98267.44
2023-01-08T13:45:41.852Z,98266.98
2023-01-08T13:49:02.108Z,98273.11
2023-01-08T13:52:35.601Z,98274.91
2023-01-08T13:55:53.373Z,98272.23
2023-01-08T13:59:05.741Z,98275.16
2023-01-08T14:02:37.655Z,98283.61
2023-01-08T14:05:51.238Z,98284.70
2023-01-08T14:09:05.979Z,98287.73
2023-01-08T14:12:22.137Z,98286.84
2023-01-08T14:15:37.011Z,98289.30
2023-01-08T14:18:50.071Z,98287.45
2023-01-08T14:22:07.013Z,98292.02
2023-01-08T14:25:25.490Z,98289.20
2023-01-08T14:28:37.679Z,98289.98
2023-01-08T14:31:57.426Z,98295.50
2023-01-08T14:35:11.447Z,98294.36
2023-01-08T14:38:24.222Z,98301.02
2023-01-08T14:41:52.122Z,98301.09
2023-01-08T14:45:09.244Z,98308.78
2023-01-08T14:48:24.583Z,98296.47
2023-01-08T14:51:38.625Z,98285.48
2023-01-08T14:54:55.402Z,98285.39
2023-01-08T14:58:07.911Z,98289.72
2023-01-08T15:01:26.773Z,98297.75
2023-01-08T15:04:39.232Z,98285.56
2023-01-08T15:08:04.556Z,98287.48
2023-01-08T15:11:26.337Z,98297.45
2023-01-08T15:14:39.617Z,98299.73
2023-01-08T15:17:51.805Z,98288.47
2023-01-08T15:21:04.955Z,98287.75
2023-01-08T15:24:27.961Z,98273.16
2023-01-08T15:27:41.148Z,98287.59
2023-01-08T15:30:54.566Z,98275.12
2023-01-08T15:34:07.553Z,98278.13
2023-01-08T15:37:21.219Z,98283.84
2023-01-08T15:40:33.790Z,98284.55
2023-01-08T15:43:46.104Z,98283.44
2023-01-08T15:46:59.245Z,98297.76
2023-01-08T15:50:13.809Z,98294.80
2023-01-08T15:53:27.922Z,98299.91
2023-01-08T15:56:40.171Z,98280.94
2023-01-08T15:59:52.428Z,98278.79
2023-01-08T16:03:04.694Z,98279.49
2023-01-08T16:06:18.937Z,98258.42
2023-01-08T16:09:31.184Z,98257.09
2023-01-08T16:12:43.579Z,98251.72
2023-01-08T16:15:56.230Z,98253.66
2023-01-08T16:19:08.490Z,98256.46
2023-01-08T16:22:20.836Z,98255.95
2023-01-08T16:25:33.090Z,98245.44
2023-01-08T16:28:45.885Z,98242.09
2023-01-08T16:31:58.259Z,98246.13
2023-01-08T16:35:11.721Z,98241.77
2023-01-08T16:38:25.071Z,98242.95
2023-01-08T16:41:37.534Z,98240.60
2023-01-08T16:44:49.753Z,98240.63
2023-01-08T16:48:03.016Z,98247.78
2023-01-08T16:51:16.009Z,98243.38
2023-01-08T16:54:28.226Z,98240.46
2023-01-08T16:57:40.882Z,98236.93
2023-01-08T17:00:53.345Z,98237.13
2023-01-08T17:04:06.142Z,98240.28
2023-01-08T17:07:20.540Z,98242.98
2023-01-08T17:10:34.877Z,98233.73
2023-01-08T17:13:47.870Z,98240.05
2023-01-08T17:17:00.262Z,98243.33
2023-01-08T17:20:15.394Z,98245.66
2023-01-08T17:23:28.929Z,98240.61
2023-01-08T17:26:41.671Z,98250.59
2023-01-08T17:29:53.982Z,98255.61
2023-01-08T17:33:06.278Z,98243.66
2023-01-08T17:36:20.882Z,98247.25
2023-01-08T17:39:33.225Z,98247.78
2023-01-08T17:42:45.656Z,98243.05
2023-01-08T17:45:58.118Z,98252.38
2023-01-08T17:49:11.394Z,98248.09
2023-01-08T17:52:24.365Z,98225.42
2023-01-08T17:55:37.112Z,98252.17
2023-01-08T17:58:49.877Z,98243.45
2023-01-08T18:02:02.415Z,98243.03
2023-01-08T18:05:18.140Z,98231.88
2023-01-08T18:08:30.342Z,98233.46
2023-01-08T18:11:42.897Z,98241.99
2023-01-08T18:14:55.251Z,98244.27
2023-01-08T18:18:07.766Z,98242.19
2023-01-08T18:21:20.025Z,98241.34
2023-01-08T18:24:32.501Z,98257.73
2023-01-08T18:27:44.932Z,98257.42
2023-01-08T18:30:57.153Z,98254.14
2023-01-08T18:34:09.779Z,98252.05
2023-01-08T18:37:23.196Z,98251.41
2023-01-08T18:40:35.549Z,98249.69
2023-01-08T18:43:47.913Z,98249.92
2023-01-08T18:47:00.134Z,98244.50
2023-01-08T18:50:14.864Z,98243.88
2023-01-08T18:53:27.388Z,98229.08
2023-01-08T18:56:41.370Z,98241.34
2023-01-08T18:59:54.141Z,98230.13
2023-01-08T19:03:08.690Z,98237.56
2023-01-08T19:06:22.613Z,98231.39
2023-01-08T19:09:34.858Z,98232.75
2023-01-08T19:12:47.345Z,98220.80
2023-01-08T19:16:00.985Z,98211.05
2023-01-08T19:19:13.245Z,98210.31
2023-01-08T19:22:26.860Z,98199.44
2023-01-08T19:25:39.560Z,98198.59
2023-01-08T19:28:52.212Z,98197.34
2023-01-08T19:32:04.831Z,98183.66
2023-01-08T19:35:17.911Z,98187.94
2023-01-08T19:38:30.512Z,98207.23
2023-01-08T19:41:57.491Z,98194.45
2023-01-08T19:45:11.042Z,98185.19
2023-01-08T19:48:23.545Z,98164.55
2023-01-08T19:51:37.310Z,98186.23
2023-01-08T19:54:50.016Z,98172.70
2023-01-08T19:58:05.142Z,98176.66
2023-01-08T20:01:19.997Z,98169.88
2023-01-08T20:04:32.812Z,98184.33
2023-01-08T20:07:45.351Z,98164.20
2023-01-08T20:10:57.783Z,98141.25
2023-01-08T20:14:10.773Z,98170.70
2023-01-08T20:17:25.200Z,98155.38
2023-01-08T20:20:37.736Z,98147.52
2023-01-08T20:23:51.251Z,98139.88
2023-01-08T20:27:03.526Z,98128.03
2023-01-08T20:30:19.023Z,98133.56
2023-01-08T20:33:31.351Z,98120.94
2023-01-08T20:36:44.325Z,98141.23
2023-01-08T20:39:56.988Z,98129.77
2023-01-08T20:43:09.509Z,98136.56
2023-01-08T20:46:22.936Z,98122.31
2023-01-08T20:49:35.991Z,98120.22
2023-01-08T20:52:48.265Z,98119.06
2023-01-08T20:56:01.955Z,98118.94
2023-01-08T20:59:14.512Z,98108.87
2023-01-08T21:02:26.782Z,98099.84
2023-01-08T21:05:39.760Z,98094.68
2023-01-08T21:08:56.975Z,98082.86
2023-01-08T21:12:07.970Z,98075.28
2023-01-08T21:15:21.801Z,98076.57
2023-01-08T21:18:34.655Z,98071.09
2023-01-08T21:21:47.257Z,98065.52
2023-01-08T21:24:59.741Z,98060.52
2023-01-08T21:28:12.509Z,98058.34
2023-01-08T21:31:28.910Z,98047.86
2023-01-08T21:34:41.776Z,98054.39
2023-01-08T21:37:54.401Z,98048.42
2023-01-08T21:41:15.324Z,98032.78
2023-01-08T21:44:44.174Z,98040.77
2023-01-08T21:47:58.546Z,98040.44
2023-01-08T21:51:13.841Z,98039.99
2023-01-08T21:54:26.212Z,98038.19
2023-01-08T21:57:44.009Z,98025.32
2023-01-08T22:00:56.908Z,98019.47
2023-01-08T22:04:09.869Z,98025.32
2023-01-08T22:07:23.099Z,98023.02
2023-01-08T22:10:35.550Z,98023.55
2023-01-08T22:13:47.955Z,98017.30
2023-01-08T22:17:00.183Z,98014.56
2023-01-08T22:20:17.667Z,98014.11
2023-01-08T22:23:29.906Z,98010.77
2023-01-08T22:26:44.736Z,97996.73
2023-01-08T22:29:56.983Z,97978.02
2023-01-08T22:33:09.266Z,97995.80
2023-01-08T22:36:21.847Z,97993.91
2023-01-08T22:39:34.640Z,98001.89
2023-01-08T22:42:46.946Z,97986.61
2023-01-08T22:46:02.643Z,97985.11
2023-01-08T22:49:16.824Z,97981.73
2023-01-08T22:52:29.080Z,97966.25
2023-01-08T22:55:41.523Z,97967.48
2023-01-08T22:58:53.806Z,97963.68
2023-01-08T23:02:06.230Z,97953.67
2023-01-08T23:05:18.633Z,97949.39
2023-01-08T23:08:30.836Z,97941.87
2023-01-08T23:11:43.271Z,97949.01
2023-01-08T23:14:55.608Z,97941.33
2023-01-08T23:18:07.907Z,97932.89
2023-01-08T23:21:23.401Z,97925.03
2023-01-08T23:24:36.016Z,97920.75
2023-01-08T23:27:48.531Z,97919.19
2023-01-08T23:31:00.769Z,97910.48
2023-01-08T23:34:14.131Z,97906.09
2023-01-08T23:37:27.034Z,97907.86
2023-01-08T23:40:39.273Z,97906.93
2023-01-08T23:43:52.280Z,97891.66
2023-01-08T23:47:06.265Z,97899.14
2023-01-08T23:50:19.843Z,97888.78
2023-01-08T23:53:32.272Z,97885.44
2023-01-08T23:56:45.585Z,97889.02
